createdAt,value
2023-01-07T00:00:52.059Z,3.52
2023-01-07T00:03:38.611Z,3.52
2023-01-07T00:06:26.765Z,3.51
2023-01-07T00:09:16.487Z,3.51
2023-01-07T00:12:02.775Z,3.51
2023-01-07T00:14:48.536Z,3.51
2023-01-07T00:17:34.465Z,3.50
2023-01-07T00:20:20.155Z,3.49
2023-01-07T00:23:05.866Z,3.49
2023-01-07T00:25:52.777Z,3.48
2023-01-07T00:28:40.821Z,3.47
2023-01-07T00:31:32.282Z,3.44
2023-01-07T00:34:23.557Z,3.42
2023-01-07T00:37:29.340Z,3.42
2023-01-07T00:40:15.198Z,3.39
2023-01-07T00:43:02.326Z,3.37
2023-01-07T00:45:48.292Z,3.37
2023-01-07T00:48:34.021Z,3.35
2023-01-07T00:51:20.108Z,3.33
2023-01-07T00:54:06.462Z,3.30
2023-01-07T00:56:52.574Z,3.29
2023-01-07T00:59:38.905Z,3.32
2023-01-07T01:02:24.534Z,3.32
2023-01-07T01:05:12.203Z,3.34
2023-01-07T01:07:58.177Z,3.32
2023-01-07T01:10:45.093Z,3.28
2023-01-07T01:13:30.950Z,3.27
2023-01-07T01:16:18.107Z,3.26
2023-01-07T01:19:03.973Z,3.21
2023-01-07T01:21:49.604Z,3.21
2023-01-07T01:24:35.148Z,3.20
2023-01-07T01:27:20.845Z,3.17
2023-01-07T01:30:07.748Z,3.16
2023-01-07T01:32:57.071Z,3.05
2023-01-07T01:35:43.918Z,3.13
2023-01-07T01:38:30.277Z,3.07
2023-01-07T01:41:19.060Z,3.08
2023-01-07T01:44:40.024Z,3.06
2023-01-07T01:47:47.638Z,3.02
2023-01-07T01:50:39.874Z,2.99
2023-01-07T01:53:29.487Z,2.92
2023-01-07T01:56:19.236Z,2.93
2023-01-07T01:59:08.237Z,2.93
2023-01-07T02:01:57.199Z,2.86
2023-01-07T02:04:43.294Z,2.92
2023-01-07T02:07:30.642Z,2.88
2023-01-07T02:10:22.508Z,2.89
2023-01-07T02:13:25.735Z,2.86
2023-01-07T02:16:22.705Z,2.83
2023-01-07T02:20:00.232Z,2.80
2023-01-07T02:22:47.125Z,2.82
2023-01-07T02:25:49.001Z,2.79
2023-01-07T02:29:11.391Z,2.80
2023-01-07T02:32:16.632Z,2.78
2023-01-07T02:35:19.777Z,2.75
2023-01-07T02:38:09.514Z,2.75
2023-01-07T02:41:38.388Z,2.73
2023-01-07T02:45:01.212Z,2.70
2023-01-07T02:47:54.260Z,2.69
2023-01-07T02:50:40.445Z,2.66
2023-01-07T02:53:26.207Z,2.68
2023-01-07T02:56:29.042Z,2.66
2023-01-07T02:59:27.845Z,2.66
2023-01-07T03:02:27.786Z,2.63
2023-01-07T03:06:01.479Z,2.66
2023-01-07T03:09:09.041Z,2.64
2023-01-07T03:12:22.022Z,2.61
2023-01-07T03:15:15.297Z,2.61
2023-01-07T03:18:20.650Z,2.59
2023-01-07T03:21:10.381Z,2.60
2023-01-07T03:23:57.424Z,2.59
2023-01-07T03:26:48.817Z,2.57
2023-01-07T03:29:38.469Z,2.55
2023-01-07T03:32:55.003Z,2.52
2023-01-07T03:35:43.393Z,2.54
2023-01-07T03:38:29.797Z,2.52
2023-01-07T03:41:37.291Z,2.55
2023-01-07T03:44:23.207Z,2.54
2023-01-07T03:47:10.106Z,2.55
2023-01-07T03:49:56.028Z,2.54
2023-01-07T03:52:42.457Z,2.52
2023-01-07T03:55:28.333Z,2.48
2023-01-07T03:58:15.593Z,2.47
2023-01-07T04:01:01.404Z,2.43
2023-01-07T04:03:47.631Z,2.42
2023-01-07T04:06:33.858Z,2.42
2023-01-07T04:09:21.587Z,2.41
2023-01-07T04:12:07.696Z,2.43
2023-01-07T04:14:53.973Z,2.43
2023-01-07T04:17:40.113Z,2.42
2023-01-07T04:20:28.044Z,2.38
2023-01-07T04:23:15.060Z,2.38
2023-01-07T04:26:03.806Z,2.32
2023-01-07T04:28:49.664Z,2.34
2023-01-07T04:31:36.023Z,2.32
2023-01-07T04:34:21.823Z,2.32
2023-01-07T04:37:07.614Z,2.33
2023-01-07T04:39:53.871Z,2.32
2023-01-07T04:42:39.808Z,2.32
2023-01-07T04:45:27.515Z,2.27
2023-01-07T04:48:13.945Z,2.25
2023-01-07T04:51:00.149Z,2.24
2023-01-07T04:53:47.239Z,2.24
2023-01-07T04:56:33.387Z,2.26
2023-01-07T04:59:20.112Z,2.28
2023-01-07T05:02:06.891Z,2.27
2023-01-07T05:04:52.888Z,2.28
2023-01-07T05:07:40.343Z,2.27
2023-01-07T05:10:27.817Z,2.25
2023-01-07T05:13:18.993Z,2.23
2023-01-07T05:16:07.910Z,2.18
2023-01-07T05:18:54.004Z,2.16
2023-01-07T05:21:39.668Z,2.16
2023-01-07T05:24:26.438Z,2.15
2023-01-07T05:27:12.221Z,2.12
2023-01-07T05:29:59.708Z,2.10
2023-01-07T05:32:45.408Z,2.07
2023-01-07T05:35:34.328Z,2.07
2023-01-07T05:38:20.832Z,2.06
2023-01-07T05:41:08.509Z,2.04
2023-01-07T05:43:55.317Z,2.02
2023-01-07T05:46:40.997Z,2.04
2023-01-07T05:49:26.720Z,2.00
2023-01-07T05:52:12.262Z,1.92
2023-01-07T05:54:58.062Z,1.95
2023-01-07T05:57:43.758Z,1.95
2023-01-07T06:00:29.563Z,1.94
2023-01-07T06:03:15.324Z,1.88
2023-01-07T06:06:07.176Z,1.89
2023-01-07T06:08:53.320Z,1.87
2023-01-07T06:11:38.964Z,1.84
2023-01-07T06:14:24.595Z,1.82
2023-01-07T06:17:10.320Z,1.80
2023-01-07T06:19:56.005Z,1.79
2023-01-07T06:22:44.601Z,1.78
2023-01-07T06:25:30.458Z,1.78
2023-01-07T06:28:16.257Z,1.73
2023-01-07T06:31:01.916Z,1.75
2023-01-07T06:33:47.776Z,1.76
2023-01-07T06:36:33.508Z,1.76
2023-01-07T06:39:19.283Z,1.73
2023-01-07T06:42:05.381Z,1.69
2023-01-07T06:44:51.227Z,1.72
2023-01-07T06:47:37.243Z,1.69
2023-01-07T06:50:23.356Z,1.71
2023-01-07T06:53:08.848Z,1.66
2023-01-07T06:55:54.754Z,1.65
2023-01-07T06:58:40.635Z,1.65
2023-01-07T07:01:26.501Z,1.64
2023-01-07T07:04:12.496Z,1.65
2023-01-07T07:06:58.463Z,1.62
2023-01-07T07:09:44.418Z,1.61
2023-01-07T07:12:30.405Z,1.68
2023-01-07T07:15:21.404Z,1.68
2023-01-07T07:18:07.529Z,1.72
2023-01-07T07:21:11.135Z,1.73
2023-01-07T07:23:56.776Z,1.77
2023-01-07T07:26:42.476Z,1.77
2023-01-07T07:29:28.099Z,1.86
2023-01-07T07:32:20.693Z,1.88
2023-01-07T07:35:07.296Z,1.94
2023-01-07T07:37:55.457Z,1.96
2023-01-07T07:40:41.324Z,1.95
2023-01-07T07:43:36.386Z,1.99
2023-01-07T07:46:22.227Z,2.05
2023-01-07T07:49:07.817Z,2.13
2023-01-07T07:51:53.659Z,2.16
2023-01-07T07:54:39.407Z,2.21
2023-01-07T07:57:25.158Z,2.26
2023-01-07T08:00:11.674Z,2.31
2023-01-07T08:03:00.239Z,2.32
2023-01-07T08:05:46.194Z,2.39
2023-01-07T08:08:32.281Z,2.44
2023-01-07T08:11:18.232Z,2.46
2023-01-07T08:14:04.060Z,2.53
2023-01-07T08:16:49.771Z,2.59
2023-01-07T08:19:35.650Z,2.60
2023-01-07T08:22:21.570Z,2.67
2023-01-07T08:25:07.904Z,2.66
2023-01-07T08:27:55.948Z,2.72
2023-01-07T08:30:42.881Z,2.75
2023-01-07T08:33:29.216Z,2.81
2023-01-07T08:36:22.727Z,2.86
2023-01-07T08:39:09.251Z,2.93
2023-01-07T08:41:55.151Z,2.93
2023-01-07T08:44:41.545Z,2.97
2023-01-07T08:47:28.075Z,3.04
2023-01-07T08:50:14.053Z,3.12
2023-01-07T08:53:00.047Z,3.13
2023-01-07T08:55:46.401Z,3.23
2023-01-07T08:58:32.156Z,3.27
2023-01-07T09:01:18.008Z,3.34
2023-01-07T09:04:04.083Z,3.39
2023-01-07T09:06:49.786Z,3.43
2023-01-07T09:09:36.709Z,3.50
2023-01-07T09:12:22.419Z,3.60
2023-01-07T09:15:09.202Z,3.75
2023-01-07T09:17:55.221Z,3.99
2023-01-07T09:20:41.378Z,4.22
2023-01-07T09:23:27.025Z,4.51
2023-01-07T09:26:12.671Z,4.75
2023-01-07T09:28:58.422Z,5.01
2023-01-07T09:31:44.031Z,5.30
2023-01-07T09:34:29.816Z,5.59
2023-01-07T09:37:15.779Z,5.89
2023-01-07T09:40:01.993Z,6.14
2023-01-07T09:42:58.070Z,6.39
2023-01-07T09:45:50.313Z,6.56
2023-01-07T09:48:40.864Z,6.67
2023-01-07T09:51:31.115Z,6.83
2023-01-07T09:54:28.476Z,6.97
2023-01-07T09:57:17.020Z,7.12
2023-01-07T10:00:03.810Z,7.28
2023-01-07T10:03:11.322Z,7.51
2023-01-07T10:06:41.935Z,7.71
2023-01-07T10:09:47.295Z,7.97
2023-01-07T10:12:49.065Z,8.25
2023-01-07T10:15:40.334Z,8.50
2023-01-07T10:18:26.172Z,8.72
2023-01-07T10:21:16.905Z,8.92
2023-01-07T10:24:05.325Z,9.10
2023-01-07T10:26:54.635Z,9.24
2023-01-07T10:29:45.191Z,9.44
2023-01-07T10:32:33.467Z,9.65
2023-01-07T10:35:21.446Z,9.81
2023-01-07T10:38:12.075Z,9.97
2023-01-07T10:41:02.039Z,10.11
2023-01-07T10:44:04.622Z,10.36
2023-01-07T10:47:21.641Z,10.61
2023-01-07T10:50:39.292Z,10.86
2023-01-07T10:53:58.007Z,11.14
2023-01-07T10:56:48.229Z,11.34
2023-01-07T10:59:34.512Z,11.51
2023-01-07T11:02:28.001Z,11.70
2023-01-07T11:05:14.960Z,11.85
2023-01-07T11:08:01.846Z,12.03
2023-01-07T11:10:52.233Z,12.20
2023-01-07T11:13:39.454Z,12.30
2023-01-07T11:16:29.373Z,12.39
2023-01-07T11:19:16.705Z,12.50
2023-01-07T11:22:02.522Z,12.57
2023-01-07T11:24:48.226Z,12.66
2023-01-07T11:27:34.520Z,12.74
2023-01-07T11:30:25.602Z,12.86
2023-01-07T11:34:01.978Z,12.97
2023-01-07T11:36:42.465Z,13.07
2023-01-07T11:39:30.874Z,13.17
2023-01-07T11:42:39.734Z,13.25
2023-01-07T11:46:19.907Z,13.42
2023-01-07T11:49:03.426Z,13.63
2023-01-07T11:51:55.131Z,13.80
2023-01-07T11:54:40.845Z,13.97
2023-01-07T11:57:27.291Z,14.08
2023-01-07T12:00:17.506Z,14.22
2023-01-07T12:03:10.964Z,14.37
2023-01-07T12:05:57.463Z,14.54
2023-01-07T12:09:03.129Z,14.67
2023-01-07T12:11:50.172Z,14.80
2023-01-07T12:14:38.702Z,14.88
2023-01-07T12:17:28.398Z,15.03
2023-01-07T12:20:35.800Z,15.19
2023-01-07T12:23:53.538Z,15.34
2023-01-07T12:27:03.808Z,15.50
2023-01-07T12:30:15.136Z,15.65
2023-01-07T12:33:29.555Z,15.87
2023-01-07T12:36:16.323Z,16.14
2023-01-07T12:39:05.422Z,16.28
2023-01-07T12:41:59.474Z,16.38
2023-01-07T12:44:50.044Z,16.44
2023-01-07T12:47:48.563Z,16.52
2023-01-07T12:50:55.294Z,16.55
2023-01-07T12:53:53.586Z,16.46
2023-01-07T12:56:53.487Z,16.22
2023-01-07T13:00:01.569Z,15.82
2023-01-07T13:03:00.119Z,15.38
2023-01-07T13:05:57.157Z,14.93
2023-01-07T13:08:47.631Z,14.47
2023-01-07T13:12:41.449Z,14.09
2023-01-07T13:15:28.240Z,13.71
2023-01-07T13:18:16.813Z,13.44
2023-01-07T13:21:11.499Z,13.21
2023-01-07T13:24:09.614Z,13.09
2023-01-07T13:27:05.324Z,13.07
2023-01-07T13:30:20.664Z,13.25
2023-01-07T13:33:48.475Z,13.58
2023-01-07T13:36:42.416Z,14.00
2023-01-07T13:39:34.631Z,14.37
2023-01-07T13:42:37.419Z,14.70
2023-01-07T13:45:25.056Z,14.98
2023-01-07T13:48:23.056Z,15.20
2023-01-07T13:51:10.314Z,15.40
2023-01-07T13:53:56.122Z,15.56
2023-01-07T13:56:42.507Z,15.67
2023-01-07T13:59:30.034Z,15.82
2023-01-07T14:02:19.620Z,15.90
2023-01-07T14:05:05.488Z,15.91
2023-01-07T14:07:53.312Z,15.89
2023-01-07T14:10:39.311Z,15.73
2023-01-07T14:13:36.187Z,15.47
2023-01-07T14:16:28.684Z,15.07
2023-01-07T14:19:32.046Z,14.65
2023-01-07T14:22:52.257Z,14.23
2023-01-07T14:26:03.753Z,13.81
2023-01-07T14:29:23.926Z,13.46
2023-01-07T14:32:14.170Z,13.22
2023-01-07T14:35:22.781Z,12.96
2023-01-07T14:38:30.353Z,12.74
2023-01-07T14:41:17.556Z,12.56
2023-01-07T14:44:26.681Z,12.37
2023-01-07T14:47:14.310Z,12.23
2023-01-07T14:50:28.715Z,12.06
2023-01-07T14:53:33.683Z,11.95
2023-01-07T14:56:32.476Z,11.79
2023-01-07T14:59:24.528Z,11.65
2023-01-07T15:02:37.545Z,11.52
2023-01-07T15:05:29.399Z,11.41
2023-01-07T15:08:38.268Z,11.31
2023-01-07T15:11:44.328Z,11.21
2023-01-07T15:14:54.466Z,11.08
2023-01-07T15:17:41.011Z,10.95
2023-01-07T15:20:38.004Z,10.87
2023-01-07T15:23:43.309Z,10.73
2023-01-07T15:26:36.223Z,10.61
2023-01-07T15:29:37.536Z,10.54
2023-01-07T15:32:40.062Z,10.49
2023-01-07T15:35:37.758Z,10.41
2023-01-07T15:38:29.650Z,10.33
2023-01-07T15:41:39.507Z,10.20
2023-01-07T15:44:38.270Z,10.13
2023-01-07T15:47:42.349Z,10.03
2023-01-07T15:50:35.001Z,9.96
2023-01-07T15:53:23.075Z,9.87
2023-01-07T15:56:13.944Z,9.80
2023-01-07T15:58:59.542Z,9.68
2023-01-07T16:01:48.035Z,9.67
2023-01-07T16:04:37.124Z,9.60
2023-01-07T16:07:26.007Z,9.56
2023-01-07T16:10:30.081Z,9.49
2023-01-07T16:13:18.781Z,9.44
2023-01-07T16:16:06.648Z,9.40
2023-01-07T16:18:59.954Z,9.32
2023-01-07T16:21:54.951Z,9.26
2023-01-07T16:24:46.926Z,9.18
2023-01-07T16:27:33.022Z,9.19
2023-01-07T16:30:19.030Z,9.10
2023-01-07T16:33:05.896Z,9.07
2023-01-07T16:35:55.789Z,8.98
2023-01-07T16:38:42.155Z,8.85
2023-01-07T16:41:29.558Z,8.79
2023-01-07T16:44:46.541Z,8.67
2023-01-07T16:47:34.213Z,8.59
2023-01-07T16:50:20.218Z,8.51
2023-01-07T16:53:22.547Z,8.42
2023-01-07T16:56:18.320Z,8.35
2023-01-07T16:59:04.317Z,8.27
2023-01-07T17:01:50.353Z,8.25
2023-01-07T17:04:36.422Z,8.17
2023-01-07T17:07:25.263Z,8.12
2023-01-07T17:10:27.847Z,8.06
2023-01-07T17:13:13.453Z,8.03
2023-01-07T17:16:15.739Z,7.95
2023-01-07T17:19:24.782Z,7.92
2023-01-07T17:22:35.062Z,7.85
2023-01-07T17:25:24.638Z,7.79
2023-01-07T17:28:19.214Z,7.72
2023-01-07T17:31:07.076Z,7.64
2023-01-07T17:33:54.443Z,7.55
2023-01-07T17:36:40.388Z,7.46
2023-01-07T17:39:26.146Z,7.37
2023-01-07T17:42:45.898Z,7.26
2023-01-07T17:45:32.543Z,7.21
2023-01-07T17:48:18.523Z,7.08
2023-01-07T17:51:07.203Z,7.07
2023-01-07T17:53:55.834Z,7.02
2023-01-07T17:56:41.695Z,6.95
2023-01-07T17:59:28.994Z,6.85
2023-01-07T18:02:17.664Z,6.75
2023-01-07T18:05:03.894Z,6.67
2023-01-07T18:07:51.063Z,6.65
2023-01-07T18:10:55.320Z,6.62
2023-01-07T18:13:41.889Z,6.54
2023-01-07T18:16:28.143Z,6.43
2023-01-07T18:19:15.300Z,6.37
2023-01-07T18:22:01.162Z,6.28
2023-01-07T18:24:50.314Z,6.28
2023-01-07T18:27:36.266Z,6.24
2023-01-07T18:30:23.290Z,6.23
2023-01-07T18:33:13.473Z,6.19
2023-01-07T18:36:00.713Z,6.14
2023-01-07T18:38:46.712Z,6.12
2023-01-07T18:41:33.820Z,6.07
2023-01-07T18:44:21.416Z,6.04
2023-01-07T18:47:07.814Z,5.98
2023-01-07T18:49:54.303Z,5.95
2023-01-07T18:52:41.266Z,5.87
2023-01-07T18:55:27.627Z,5.85
2023-01-07T18:58:15.142Z,5.75
2023-01-07T19:01:05.382Z,5.74
2023-01-07T19:03:51.776Z,5.71
2023-01-07T19:06:38.040Z,5.65
2023-01-07T19:09:23.919Z,5.62
2023-01-07T19:12:11.410Z,5.59
2023-01-07T19:14:57.544Z,5.55
2023-01-07T19:17:43.342Z,5.50
2023-01-07T19:20:29.060Z,5.46
2023-01-07T19:23:14.940Z,5.39
2023-01-07T19:26:02.868Z,5.38
2023-01-07T19:28:49.017Z,5.35
2023-01-07T19:31:36.262Z,5.30
2023-01-07T19:34:22.510Z,5.23
2023-01-07T19:37:08.358Z,5.17
2023-01-07T19:39:54.231Z,5.11
2023-01-07T19:42:39.963Z,5.07
2023-01-07T19:45:25.735Z,5.01
2023-01-07T19:48:11.558Z,4.93
2023-01-07T19:50:59.314Z,4.89
2023-01-07T19:53:47.891Z,4.87
2023-01-07T19:56:34.619Z,4.80
2023-01-07T19:59:20.183Z,4.78
2023-01-07T20:02:05.981Z,4.73
2023-01-07T20:04:52.226Z,4.69
2023-01-07T20:07:37.920Z,4.68
2023-01-07T20:10:23.679Z,4.65
2023-01-07T20:13:09.682Z,4.63
2023-01-07T20:15:55.818Z,4.59
2023-01-07T20:18:46.489Z,4.56
2023-01-07T20:21:33.057Z,4.55
2023-01-07T20:24:19.196Z,4.51
2023-01-07T20:27:05.437Z,4.45
2023-01-07T20:29:51.230Z,4.41
2023-01-07T20:32:37.124Z,4.37
2023-01-07T20:35:24.558Z,4.35
2023-01-07T20:38:11.512Z,4.35
2023-01-07T20:40:57.181Z,4.34
2023-01-07T20:43:43.580Z,4.34
2023-01-07T20:46:30.299Z,4.33
2023-01-07T20:49:16.177Z,4.33
2023-01-07T20:52:02.111Z,4.32
2023-01-07T20:54:47.858Z,4.30
2023-01-07T20:57:34.144Z,4.31
2023-01-07T21:00:20.291Z,4.29
2023-01-07T21:03:06.477Z,4.26
2023-01-07T21:05:56.618Z,4.24
2023-01-07T21:08:42.413Z,4.19
2023-01-07T21:11:28.167Z,4.19
2023-01-07T21:14:14.243Z,4.14
2023-01-07T21:17:00.115Z,4.14
2023-01-07T21:19:46.185Z,4.15
2023-01-07T21:22:32.060Z,4.11
2023-01-07T21:25:18.185Z,4.14
2023-01-07T21:28:05.450Z,4.09
2023-01-07T21:30:53.801Z,4.07
2023-01-07T21:33:40.266Z,4.07
2023-01-07T21:36:26.861Z,4.08
2023-01-07T21:39:13.401Z,4.09
2023-01-07T21:42:00.003Z,4.05
2023-01-07T21:44:45.696Z,4.04
2023-01-07T21:47:31.968Z,4.03
2023-01-07T21:50:17.785Z,4.00
2023-01-07T21:53:03.673Z,3.96
2023-01-07T21:55:49.940Z,3.87
2023-01-07T21:58:36.651Z,3.88
2023-01-07T22:01:28.330Z,3.80
2023-01-07T22:04:14.747Z,3.80
2023-01-07T22:07:00.986Z,3.72
2023-01-07T22:09:46.912Z,3.71
2023-01-07T22:12:33.109Z,3.61
2023-01-07T22:15:19.831Z,3.61
2023-01-07T22:18:05.983Z,3.59
2023-01-07T22:20:55.848Z,3.55
2023-01-07T22:23:45.831Z,3.53
2023-01-07T22:26:32.038Z,3.50
2023-01-07T22:29:18.670Z,3.46
2023-01-07T22:32:05.081Z,3.44
2023-01-07T22:34:51.071Z,3.43
2023-01-07T22:37:37.132Z,3.44
2023-01-07T22:40:23.081Z,3.43
2023-01-07T22:43:12.768Z,3.37
2023-01-07T22:46:04.040Z,3.38
2023-01-07T22:48:50.468Z,3.34
2023-01-07T22:51:39.666Z,3.32
2023-01-07T22:54:25.777Z,3.28
2023-01-07T22:57:12.329Z,3.23
2023-01-07T22:59:59.156Z,3.23
2023-01-07T23:02:45.122Z,3.18
2023-01-07T23:05:30.962Z,3.12
2023-01-07T23:08:17.533Z,3.13
2023-01-07T23:11:04.336Z,3.12
2023-01-07T23:13:49.970Z,3.11
2023-01-07T23:16:36.731Z,3.08
2023-01-07T23:19:22.982Z,3.07
2023-01-07T23:22:08.847Z,3.05
2023-01-07T23:24:54.723Z,2.99
2023-01-07T23:27:40.400Z,3.01
2023-01-07T23:30:26.288Z,3.00
2023-01-07T23:33:12.299Z,2.96
2023-01-07T23:36:08.712Z,2.97
2023-01-07T23:38:54.819Z,2.96
2023-01-07T23:41:40.997Z,2.92
2023-01-07T23:44:27.538Z,2.90
2023-01-07T23:47:13.227Z,2.86
2023-01-07T23:49:59.042Z,2.80
2023-01-07T23:52:45.230Z,2.77
2023-01-07T23:55:30.842Z,2.74
2023-01-07T23:58:16.470Z,2.75
